createdAt,value
2022-11-01T00:02:00.258Z,42.85
2022-11-01T00:04:27.052Z,43.23
2022-11-01T00:06:53.845Z,43.99
2022-11-01T00:09:21.162Z,43.85
2022-11-01T00:11:48.266Z,43.77
2022-11-01T00:14:16.831Z,43.40
2022-11-01T00:16:43.808Z,43.83
2022-11-01T00:19:11.355Z,44.64
2022-11-01T00:21:38.131Z,44.39
2022-11-01T00:24:05.531Z,44.21
2022-11-01T00:26:32.309Z,44.86
2022-11-01T00:28:59.293Z,45.07
2022-11-01T00:31:26.024Z,44.51
2022-11-01T00:33:52.885Z,45.40
2022-11-01T00:36:19.713Z,45.42
2022-11-01T00:38:50.791Z,44.90
2022-11-01T00:41:19.461Z,45.66
2022-11-01T00:43:46.640Z,45.59
2022-11-01T00:46:13.395Z,44.77
2022-11-01T00:48:40.226Z,45.16
2022-11-01T00:51:07.006Z,44.66
2022-11-01T00:53:33.916Z,44.89
2022-11-01T00:56:05.868Z,45.01
2022-11-01T00:58:32.692Z,44.76
2022-11-01T01:00:59.927Z,44.70
2022-11-01T01:03:26.833Z,44.95
2022-11-01T01:05:54.358Z,44.99
2022-11-01T01:08:21.819Z,44.91
2022-11-01T01:10:48.829Z,45.59
2022-11-01T01:13:15.609Z,45.11
2022-11-01T01:15:42.415Z,45.17
2022-11-01T01:18:09.758Z,44.79
2022-11-01T01:20:37.155Z,44.64
2022-11-01T01:23:04.751Z,44.41
2022-11-01T01:25:31.834Z,45.08
2022-11-01T01:27:58.882Z,44.72
2022-11-01T01:30:25.845Z,44.55
2022-11-01T01:32:52.556Z,44.80
2022-11-01T01:35:19.358Z,45.36
2022-11-01T01:37:46.036Z,45.02
2022-11-01T01:40:12.713Z,44.93
2022-11-01T01:42:41.894Z,45.63
2022-11-01T01:45:20.182Z,45.10
2022-11-01T01:47:51.659Z,45.31
2022-11-01T01:50:42.037Z,46.73
2022-11-01T01:53:12.774Z,46.18
2022-11-01T01:55:51.218Z,46.70
2022-11-01T01:58:22.194Z,47.52
2022-11-01T02:00:49.638Z,47.13
2022-11-01T02:03:16.815Z,46.81
2022-11-01T02:08:43.891Z,46.32
2022-11-01T02:11:11.968Z,46.41
2022-11-01T02:13:39.147Z,46.66
2022-11-01T02:16:26.281Z,47.21
2022-11-01T02:19:34.642Z,45.80
2022-11-01T02:22:10.063Z,45.08
2022-11-01T02:25:03.706Z,45.42
2022-11-01T02:27:53.558Z,45.61
2022-11-01T02:30:21.657Z,45.65
2022-11-01T02:33:09.498Z,46.15
2022-11-01T02:36:02.815Z,46.08
2022-11-01T02:38:38.805Z,45.33
2022-11-01T02:41:23.757Z,46.94
2022-11-01T02:44:00.197Z,46.24
2022-11-01T02:46:49.438Z,46.31
2022-11-01T02:49:19.359Z,45.77
2022-11-01T02:51:47.263Z,45.42
2022-11-01T02:54:23.466Z,45.87
2022-11-01T02:56:50.900Z,46.11
2022-11-01T02:59:26.593Z,45.58
2022-11-01T03:02:06.944Z,45.80
2022-11-01T03:04:35.281Z,45.77
2022-11-01T03:07:07.502Z,45.57
2022-11-01T03:09:36.181Z,46.36
2022-11-01T03:12:08.205Z,46.32
2022-11-01T03:14:57.757Z,45.97
2022-11-01T03:17:41.516Z,45.83
2022-11-01T03:20:18.326Z,45.86
2022-11-01T03:22:49.482Z,46.62
2022-11-01T03:25:39.711Z,45.86
2022-11-01T03:28:12.663Z,46.12
2022-11-01T03:30:44.908Z,46.60
2022-11-01T03:33:14.839Z,45.81
2022-11-01T03:35:46.554Z,46.51
2022-11-01T03:38:19.363Z,45.81
2022-11-01T03:40:53.986Z,46.36
2022-11-01T03:43:26.445Z,46.21
2022-11-01T03:45:54.703Z,45.50
2022-11-01T03:48:21.573Z,45.79
2022-11-01T03:50:50.068Z,46.45
2022-11-01T03:53:16.990Z,45.52
2022-11-01T03:55:44.086Z,46.35
2022-11-01T03:58:11.551Z,46.27
2022-11-01T04:00:41.953Z,46.28
2022-11-01T04:03:10.906Z,46.21
2022-11-01T04:05:40.737Z,46.41
2022-11-01T04:08:08.617Z,46.45
2022-11-01T04:10:35.922Z,46.44
2022-11-01T04:13:03.929Z,46.94
2022-11-01T04:15:49.326Z,47.03
2022-11-01T04:18:41.441Z,47.35
2022-11-01T04:21:11.470Z,46.93
2022-11-01T04:23:38.548Z,46.66
2022-11-01T04:26:06.650Z,47.08
2022-11-01T04:28:33.650Z,46.53
2022-11-01T04:31:00.404Z,47.09
2022-11-01T04:33:27.047Z,46.99
2022-11-01T04:35:53.915Z,47.50
2022-11-01T04:38:20.593Z,46.90
2022-11-01T04:40:47.264Z,46.39
2022-11-01T04:43:14.042Z,46.58
2022-11-01T04:45:40.892Z,47.31
2022-11-01T04:48:13.578Z,47.09
2022-11-01T04:50:41.984Z,47.48
2022-11-01T04:53:09.798Z,48.01
2022-11-01T04:55:36.755Z,48.14
2022-11-01T04:58:04.502Z,48.19
2022-11-01T05:00:33.274Z,47.90
2022-11-01T05:03:02.601Z,47.26
2022-11-01T05:05:30.006Z,48.04
2022-11-01T05:08:09.955Z,47.43
2022-11-01T05:10:39.429Z,47.35
2022-11-01T05:13:06.680Z,47.63
2022-11-01T05:15:40.251Z,51.32
2022-11-01T05:18:14.806Z,49.63
2022-11-01T05:20:41.534Z,48.42
2022-11-01T05:23:09.131Z,47.38
2022-11-01T05:25:38.136Z,47.57
2022-11-01T05:28:08.634Z,49.29
2022-11-01T05:30:36.793Z,47.87
2022-11-01T05:33:05.548Z,47.59
2022-11-01T05:35:34.094Z,47.49
2022-11-01T05:38:02.277Z,47.78
2022-11-01T05:40:29.802Z,49.86
2022-11-01T05:42:57.623Z,48.94
2022-11-01T05:45:24.635Z,47.50
2022-11-01T05:47:51.514Z,48.26
2022-11-01T05:50:18.385Z,47.72
2022-11-01T05:52:45.470Z,47.32
2022-11-01T05:55:12.616Z,47.54
2022-11-01T05:57:39.534Z,47.49
2022-11-01T06:00:06.922Z,47.95
2022-11-01T06:02:39.505Z,48.05
2022-11-01T06:05:06.638Z,47.98
2022-11-01T06:07:35.811Z,48.20
2022-11-01T06:10:04.163Z,49.29
2022-11-01T06:12:30.898Z,50.24
2022-11-01T06:14:57.979Z,48.68
2022-11-01T06:17:24.989Z,48.00
2022-11-01T06:19:51.785Z,49.56
2022-11-01T06:22:18.589Z,49.29
2022-11-01T06:24:45.664Z,48.49
2022-11-01T06:27:12.882Z,47.68
2022-11-01T06:29:39.719Z,48.73
2022-11-01T06:32:06.571Z,49.74
2022-11-01T06:34:33.729Z,49.78
2022-11-01T06:37:01.033Z,50.28
2022-11-01T06:39:27.850Z,49.62
2022-11-01T06:41:54.897Z,49.79
2022-11-01T06:44:22.187Z,48.13
2022-11-01T06:46:49.816Z,50.00
2022-11-01T06:49:19.079Z,49.51
2022-11-01T06:51:47.088Z,50.96
2022-11-01T06:54:14.291Z,49.59
2022-11-01T06:56:41.445Z,49.52
2022-11-01T06:59:08.678Z,48.89
2022-11-01T07:01:35.759Z,47.94
2022-11-01T07:04:02.759Z,48.54
2022-11-01T07:06:31.018Z,49.37
2022-11-01T07:09:01.036Z,49.74
2022-11-01T07:11:31.490Z,49.74
2022-11-01T07:13:59.504Z,49.92
2022-11-01T07:16:27.360Z,48.57
2022-11-01T07:18:54.669Z,48.86
2022-11-01T07:21:21.861Z,48.51
2022-11-01T07:23:49.143Z,48.18
2022-11-01T07:26:16.164Z,46.61
2022-11-01T07:28:42.949Z,47.65
2022-11-01T07:31:09.709Z,47.42
2022-11-01T07:33:36.546Z,47.38
2022-11-01T07:36:04.398Z,47.68
2022-11-01T07:38:31.468Z,46.88
2022-11-01T07:40:58.566Z,47.00
2022-11-01T07:43:25.369Z,47.10
2022-11-01T07:45:52.132Z,46.17
2022-11-01T07:48:20.294Z,44.85
2022-11-01T07:50:47.201Z,45.26
2022-11-01T07:53:16.713Z,45.87
2022-11-01T07:55:44.711Z,44.83
2022-11-01T07:58:12.234Z,44.08
2022-11-01T08:00:40.310Z,43.92
2022-11-01T08:03:10.684Z,42.50
2022-11-01T08:05:38.867Z,42.46
2022-11-01T08:08:06.956Z,41.97
2022-11-01T08:10:34.927Z,42.74
2022-11-01T08:13:23.042Z,41.25
2022-11-01T08:15:51.711Z,41.57
2022-11-01T08:18:22.363Z,41.14
2022-11-01T08:20:49.354Z,41.65
2022-11-01T08:23:16.900Z,41.17
2022-11-01T08:25:44.913Z,40.06
2022-11-01T08:28:17.878Z,39.01
2022-11-01T08:30:47.155Z,39.20
2022-11-01T08:33:14.364Z,40.07
2022-11-01T08:35:42.646Z,38.93
2022-11-01T08:38:13.230Z,38.51
2022-11-01T08:40:40.409Z,38.89
2022-11-01T08:43:07.212Z,39.84
2022-11-01T08:45:33.978Z,39.05
2022-11-01T08:48:03.353Z,36.82
2022-11-01T08:50:30.417Z,36.33
2022-11-01T08:52:57.221Z,36.63
2022-11-01T08:55:24.134Z,36.74
2022-11-01T08:57:50.968Z,37.19
2022-11-01T09:00:18.690Z,35.85
2022-11-01T09:02:45.626Z,37.74
2022-11-01T09:05:13.054Z,37.62
2022-11-01T09:07:39.968Z,36.78
2022-11-01T09:10:07.972Z,36.45
2022-11-01T09:12:35.384Z,35.30
2022-11-01T09:15:02.450Z,34.56
2022-11-01T09:17:29.240Z,36.30
2022-11-01T09:19:56.078Z,35.84
2022-11-01T09:22:23.258Z,35.68
2022-11-01T09:24:49.981Z,35.57
2022-11-01T09:27:16.729Z,34.76
2022-11-01T09:29:46.546Z,33.89
2022-11-01T09:32:16.299Z,33.76
2022-11-01T09:34:43.011Z,32.90
2022-11-01T09:37:09.780Z,33.95
2022-11-01T09:39:36.690Z,33.70
2022-11-01T09:42:09.997Z,34.11
2022-11-01T09:44:42.113Z,32.97
2022-11-01T09:47:16.552Z,32.65
2022-11-01T09:49:48.327Z,32.93
2022-11-01T09:52:25.531Z,32.38
2022-11-01T09:54:52.754Z,32.47
2022-11-01T09:57:35.401Z,32.58
2022-11-01T10:00:02.103Z,33.05
2022-11-01T10:02:48.556Z,33.27
2022-11-01T10:05:38.359Z,33.02
2022-11-01T10:08:11.924Z,32.31
2022-11-01T10:10:59.805Z,30.80
2022-11-01T10:13:37.529Z,31.26
2022-11-01T10:16:29.040Z,32.15
2022-11-01T10:19:04.573Z,32.45
2022-11-01T10:21:43.049Z,32.46
2022-11-01T10:24:35.001Z,32.82
2022-11-01T10:27:24.725Z,31.18
2022-11-01T10:30:06.178Z,32.28
2022-11-01T10:32:36.261Z,31.41
2022-11-01T10:35:12.245Z,31.51
2022-11-01T10:38:03.993Z,31.92
2022-11-01T10:40:46.656Z,33.00
2022-11-01T10:43:17.146Z,33.33
2022-11-01T10:45:47.723Z,31.58
2022-11-01T10:48:33.091Z,31.88
2022-11-01T10:51:03.813Z,31.50
2022-11-01T10:53:35.645Z,31.71
2022-11-01T10:56:09.101Z,30.71
2022-11-01T10:58:35.905Z,31.59
2022-11-01T11:01:05.416Z,30.73
2022-11-01T11:03:33.059Z,31.04
2022-11-01T11:06:07.297Z,30.38
2022-11-01T11:08:36.432Z,29.13
2022-11-01T11:11:07.818Z,29.59
2022-11-01T11:13:35.235Z,30.53
2022-11-01T11:16:06.206Z,30.85
2022-11-01T11:18:38.935Z,29.34
2022-11-01T11:21:11.706Z,29.60
2022-11-01T11:23:46.519Z,29.85
2022-11-01T11:26:17.707Z,29.47
2022-11-01T11:28:55.084Z,29.88
2022-11-01T11:31:28.741Z,28.67
2022-11-01T11:34:06.578Z,27.78
2022-11-01T11:36:42.046Z,28.29
2022-11-01T11:39:25.030Z,27.27
2022-11-01T11:41:51.966Z,26.61
2022-11-01T11:44:43.321Z,26.99
2022-11-01T11:47:36.776Z,25.68
2022-11-01T11:50:37.865Z,25.34
2022-11-01T11:53:18.355Z,24.97
2022-11-01T11:55:52.671Z,25.09
2022-11-01T11:58:40.600Z,24.74
2022-11-01T12:01:08.505Z,24.55
2022-11-01T12:03:58.094Z,24.33
2022-11-01T12:06:29.838Z,23.32
2022-11-01T12:09:00.916Z,23.23
2022-11-01T12:11:45.100Z,21.68
2022-11-01T12:14:34.562Z,22.68
2022-11-01T12:17:01.522Z,22.22
2022-11-01T12:19:30.927Z,20.69
2022-11-01T12:22:01.577Z,20.42
2022-11-01T12:24:36.523Z,20.66
2022-11-01T12:27:07.205Z,20.27
2022-11-01T12:29:40.927Z,21.17
2022-11-01T12:32:59.881Z,20.79
2022-11-01T12:35:29.521Z,20.33
2022-11-01T12:38:33.952Z,20.32
2022-11-01T12:41:15.868Z,19.38
2022-11-01T12:43:54.936Z,19.14
2022-11-01T12:46:35.759Z,18.59
2022-11-01T12:49:12.170Z,18.80
2022-11-01T12:51:52.639Z,18.19
2022-11-01T12:54:35.001Z,17.77
2022-11-01T12:57:02.458Z,17.75
2022-11-01T12:59:37.112Z,17.54
2022-11-01T13:02:40.533Z,18.55
2022-11-01T13:05:22.324Z,17.58
2022-11-01T13:07:59.838Z,16.99
2022-11-01T13:10:33.388Z,17.77
2022-11-01T13:13:27.867Z,17.25
2022-11-01T13:15:58.210Z,17.43
2022-11-01T13:18:55.573Z,17.79
2022-11-01T13:21:49.893Z,18.43
2022-11-01T13:24:30.002Z,18.50
2022-11-01T13:27:10.707Z,18.98
2022-11-01T13:29:54.116Z,18.51
2022-11-01T13:32:42.903Z,18.35
2022-11-01T13:35:15.276Z,18.44
2022-11-01T13:38:03.274Z,19.05
2022-11-01T13:41:02.284Z,19.46
2022-11-01T13:43:39.940Z,18.80
2022-11-01T13:46:45.722Z,19.09
2022-11-01T13:49:33.767Z,19.57
2022-11-01T13:52:28.704Z,19.65
2022-11-01T13:55:17.103Z,19.89
2022-11-01T13:57:45.245Z,20.22
2022-11-01T14:00:35.318Z,20.57
2022-11-01T14:03:20.295Z,21.16
2022-11-01T14:06:07.870Z,21.82
2022-11-01T14:08:42.492Z,21.56
2022-11-01T14:11:33.364Z,21.83
2022-11-01T14:14:00.296Z,22.27
2022-11-01T14:16:28.234Z,22.24
2022-11-01T14:19:04.048Z,22.15
2022-11-01T14:21:48.718Z,22.06
2022-11-01T14:24:22.494Z,23.11
2022-11-01T14:27:00.945Z,23.16
2022-11-01T14:29:30.238Z,24.14
2022-11-01T14:31:58.655Z,24.30
2022-11-01T14:34:29.014Z,24.60
2022-11-01T14:37:00.552Z,24.67
2022-11-01T14:39:43.236Z,24.74
2022-11-01T14:42:16.021Z,24.73
2022-11-01T14:44:50.452Z,25.21
2022-11-01T14:47:29.880Z,25.21
2022-11-01T14:49:59.231Z,24.87
2022-11-01T14:52:36.012Z,25.41
2022-11-01T14:55:13.503Z,25.25
2022-11-01T14:57:40.793Z,25.62
2022-11-01T15:00:40.287Z,25.87
2022-11-01T15:03:09.703Z,26.04
2022-11-01T15:05:50.836Z,25.78
2022-11-01T15:08:40.525Z,26.01
2022-11-01T15:11:08.182Z,27.54
2022-11-01T15:13:40.804Z,29.12
2022-11-01T15:16:19.560Z,28.05
2022-11-01T15:19:14.951Z,27.59
2022-11-01T15:21:46.946Z,27.28
2022-11-01T15:24:23.988Z,27.19
2022-11-01T15:26:51.312Z,27.54
2022-11-01T15:29:20.192Z,27.20
2022-11-01T15:31:51.871Z,27.48
2022-11-01T15:34:34.442Z,26.56
2022-11-01T15:37:21.671Z,26.52
2022-11-01T15:39:49.455Z,27.38
2022-11-01T15:42:20.568Z,27.75
2022-11-01T15:44:47.863Z,28.03
2022-11-01T15:47:21.330Z,28.20
2022-11-01T15:49:48.368Z,28.22
2022-11-01T15:52:21.913Z,28.22
2022-11-01T15:54:54.422Z,28.38
2022-11-01T15:57:26.233Z,28.50
2022-11-01T16:00:08.483Z,28.10
2022-11-01T16:03:03.963Z,28.41
2022-11-01T16:05:37.129Z,27.98
2022-11-01T16:08:09.248Z,27.56
2022-11-01T16:10:36.672Z,27.83
2022-11-01T16:13:05.824Z,28.20
2022-11-01T16:15:35.602Z,28.51
2022-11-01T16:18:16.085Z,28.58
2022-11-01T16:20:47.196Z,28.50
2022-11-01T16:23:31.466Z,28.71
2022-11-01T16:26:07.588Z,29.14
2022-11-01T16:28:40.284Z,29.15
2022-11-01T16:31:33.434Z,29.28
2022-11-01T16:34:00.514Z,29.68
2022-11-01T16:36:36.320Z,29.64
2022-11-01T16:39:25.180Z,29.42
2022-11-01T16:41:52.778Z,29.68
2022-11-01T16:44:20.387Z,29.47
2022-11-01T16:46:47.470Z,28.71
2022-11-01T16:49:14.130Z,28.51
2022-11-01T16:51:41.667Z,28.75
2022-11-01T16:54:12.857Z,28.81
2022-11-01T16:56:51.511Z,28.92
2022-11-01T16:59:21.591Z,28.96
2022-11-01T17:01:49.384Z,29.22
2022-11-01T17:04:18.510Z,29.37
2022-11-01T17:06:45.370Z,29.13
2022-11-01T17:09:14.412Z,29.08
2022-11-01T17:11:46.389Z,29.53
2022-11-01T17:14:21.995Z,29.29
2022-11-01T17:16:51.056Z,29.67
2022-11-01T17:19:26.145Z,29.69
2022-11-01T17:21:54.220Z,29.98
2022-11-01T17:24:23.028Z,30.36
2022-11-01T17:26:51.367Z,30.67
2022-11-01T17:29:18.246Z,30.28
2022-11-01T17:31:45.026Z,29.92
2022-11-01T17:34:11.859Z,30.17
2022-11-01T17:36:43.477Z,29.98
2022-11-01T17:39:11.214Z,30.13
2022-11-01T17:41:39.357Z,30.44
2022-11-01T17:44:06.672Z,31.02
2022-11-01T17:46:33.391Z,30.46
2022-11-01T17:49:00.674Z,30.64
2022-11-01T17:51:27.541Z,31.02
2022-11-01T17:53:55.501Z,31.18
2022-11-01T17:56:24.296Z,31.31
2022-11-01T17:58:53.675Z,31.21
2022-11-01T18:01:21.733Z,31.22
2022-11-01T18:03:49.435Z,31.39
2022-11-01T18:06:16.953Z,31.88
2022-11-01T18:08:49.706Z,32.16
2022-11-01T18:11:40.032Z,32.48
2022-11-01T18:14:15.525Z,32.61
2022-11-01T18:16:48.719Z,32.70
2022-11-01T18:19:24.807Z,32.58
2022-11-01T18:22:10.032Z,32.53
2022-11-01T18:24:57.425Z,32.82
2022-11-01T18:27:34.177Z,33.13
2022-11-01T18:30:07.656Z,32.73
2022-11-01T18:32:48.816Z,33.75
2022-11-01T18:35:32.162Z,33.81
2022-11-01T18:38:17.925Z,34.38
2022-11-01T18:41:05.456Z,36.13
2022-11-01T18:43:37.937Z,35.43
2022-11-01T18:46:26.327Z,37.76
2022-11-01T18:49:02.092Z,39.83
2022-11-01T18:51:31.304Z,38.61
2022-11-01T18:54:11.028Z,37.89
2022-11-01T18:56:39.589Z,37.17
2022-11-01T18:59:35.590Z,38.42
2022-11-01T19:02:27.968Z,37.75
2022-11-01T19:05:13.990Z,37.32
2022-11-01T19:08:09.134Z,36.55
2022-11-01T19:10:28.637Z,37.13
2022-11-01T19:12:56.154Z,37.05
2022-11-01T19:15:28.482Z,37.61
2022-11-01T19:18:00.546Z,37.11
2022-11-01T19:20:30.249Z,37.33
2022-11-01T19:23:02.484Z,37.50
2022-11-01T19:25:35.177Z,38.25
2022-11-01T19:28:05.988Z,39.04
2022-11-01T19:30:33.622Z,39.28
2022-11-01T19:33:33.091Z,39.61
2022-11-01T19:36:04.489Z,38.91
2022-11-01T19:38:31.674Z,38.77
2022-11-01T19:40:59.003Z,39.05
2022-11-01T19:43:27.470Z,37.71
2022-11-01T19:45:56.928Z,37.98
2022-11-01T19:48:28.249Z,37.75
2022-11-01T19:50:55.430Z,38.18
2022-11-01T19:53:28.001Z,38.53
2022-11-01T19:56:05.274Z,38.69
2022-11-01T19:58:48.974Z,38.11
2022-11-01T20:01:22.978Z,38.03
2022-11-01T20:04:02.442Z,37.69
2022-11-01T20:06:36.066Z,37.83
2022-11-01T20:09:09.247Z,38.28
2022-11-01T20:11:36.057Z,38.51
2022-11-01T20:14:03.259Z,38.20
2022-11-01T20:16:30.002Z,38.62
2022-11-01T20:18:56.989Z,38.78
2022-11-01T20:21:23.844Z,38.25
2022-11-01T20:23:50.775Z,38.64
2022-11-01T20:26:17.639Z,38.15
2022-11-01T20:28:44.580Z,39.45
2022-11-01T20:31:11.478Z,41.23
2022-11-01T20:33:38.465Z,40.49
2022-11-01T20:36:10.768Z,39.21
2022-11-01T20:38:39.153Z,38.72
2022-11-01T20:41:06.160Z,38.63
2022-11-01T20:43:33.082Z,38.63
2022-11-01T20:46:00.070Z,38.24
2022-11-01T20:48:27.278Z,38.48
2022-11-01T20:50:53.997Z,39.09
2022-11-01T20:53:21.522Z,39.11
2022-11-01T20:55:50.833Z,39.17
2022-11-01T20:58:18.013Z,39.27
2022-11-01T21:00:45.255Z,39.54
2022-11-01T21:03:17.911Z,39.67
2022-11-01T21:05:46.836Z,39.43
2022-11-01T21:08:26.804Z,39.74
2022-11-01T21:11:02.812Z,40.71
2022-11-01T21:13:39.105Z,40.52
2022-11-01T21:16:16.249Z,41.83
2022-11-01T21:18:45.747Z,42.58
2022-11-01T21:21:15.418Z,43.41
2022-11-01T21:23:44.654Z,43.92
2022-11-01T21:26:17.439Z,43.52
2022-11-01T21:28:46.872Z,44.01
2022-11-01T21:31:13.450Z,42.46
2022-11-01T21:33:50.114Z,43.38
2022-11-01T21:36:19.831Z,43.83
2022-11-01T21:38:48.811Z,44.56
2022-11-01T21:41:31.776Z,42.95
2022-11-01T21:44:20.521Z,43.24
2022-11-01T21:47:00.895Z,45.62
2022-11-01T21:49:31.877Z,44.46
2022-11-01T21:52:01.923Z,44.76
2022-11-01T21:54:31.492Z,45.52
2022-11-01T21:56:58.287Z,43.88
2022-11-01T21:59:26.112Z,43.98
2022-11-01T22:01:54.008Z,43.48
2022-11-01T22:04:23.448Z,42.87
2022-11-01T22:06:50.543Z,42.47
2022-11-01T22:09:18.515Z,42.60
2022-11-01T22:11:45.369Z,42.60
2022-11-01T22:14:12.668Z,42.12
2022-11-01T22:16:39.934Z,42.21
2022-11-01T22:19:07.417Z,42.44
2022-11-01T22:21:34.379Z,42.23
2022-11-01T22:24:01.380Z,43.58
2022-11-01T22:26:28.287Z,46.00
2022-11-01T22:28:55.625Z,45.83
2022-11-01T22:31:23.116Z,45.19
2022-11-01T22:33:54.734Z,44.83
2022-11-01T22:36:30.039Z,44.09
2022-11-01T22:38:59.000Z,43.45
2022-11-01T22:41:29.926Z,43.29
2022-11-01T22:44:03.880Z,42.88
2022-11-01T22:46:44.944Z,43.80
2022-11-01T22:49:47.263Z,42.99
2022-11-01T22:52:26.766Z,43.39
2022-11-01T22:55:06.904Z,43.98
2022-11-01T22:57:36.431Z,44.09
2022-11-01T23:00:30.872Z,43.97
2022-11-01T23:03:14.817Z,44.77
2022-11-01T23:05:42.808Z,44.43
2022-11-01T23:08:26.128Z,43.82
2022-11-01T23:10:53.153Z,43.83
2022-11-01T23:13:50.117Z,43.59
2022-11-01T23:16:17.015Z,43.23
2022-11-01T23:18:43.993Z,43.54
2022-11-01T23:21:11.051Z,43.92
2022-11-01T23:23:41.936Z,43.40
2022-11-01T23:26:09.584Z,43.49
2022-11-01T23:28:40.367Z,45.85
2022-11-01T23:31:07.632Z,46.52
2022-11-01T23:33:39.797Z,46.37
2022-11-01T23:36:26.961Z,45.40
2022-11-01T23:39:12.315Z,45.83
2022-11-01T23:41:44.195Z,45.48
2022-11-01T23:44:20.847Z,44.65
2022-11-01T23:46:47.778Z,44.50
2022-11-01T23:49:23.947Z,44.75
2022-11-01T23:51:51.720Z,45.59
2022-11-01T23:54:26.942Z,44.89
2022-11-01T23:56:54.931Z,46.28
2022-11-01T23:59:21.747Z,45.35
